createdAt,value
2023-02-13T00:02:25.168Z,6.15
2023-02-13T00:06:07.445Z,5.93
2023-02-13T00:09:49.455Z,5.97
2023-02-13T00:13:31.395Z,5.78
2023-02-13T00:17:13.340Z,6.80
2023-02-13T00:21:09.145Z,5.63
2023-02-13T00:24:51.153Z,10.00
2023-02-13T00:28:33.324Z,7.05
2023-02-13T00:32:15.414Z,5.75
2023-02-13T00:36:04.363Z,6.30
2023-02-13T00:39:46.398Z,7.75
2023-02-13T00:43:28.441Z,5.85
2023-02-13T00:47:10.773Z,7.47
2023-02-13T00:50:52.748Z,7.75
2023-02-13T00:54:34.770Z,7.43
2023-02-13T00:58:17.954Z,6.15
2023-02-13T01:02:00.070Z,6.55
2023-02-13T01:05:43.099Z,8.77
2023-02-13T01:09:25.683Z,8.73
2023-02-13T01:13:08.588Z,7.05
2023-02-13T01:16:50.597Z,6.90
2023-02-13T01:20:32.556Z,7.68
2023-02-13T01:24:14.663Z,7.55
2023-02-13T01:27:56.730Z,6.90
2023-02-13T01:31:38.948Z,6.07
2023-02-13T01:35:20.951Z,7.50
2023-02-13T01:39:03.091Z,7.93
2023-02-13T01:42:45.047Z,7.20
2023-02-13T01:46:29.948Z,6.55
2023-02-13T01:50:21.311Z,6.90
2023-02-13T01:54:08.083Z,7.63
2023-02-13T01:58:02.927Z,7.18
2023-02-13T02:01:45.767Z,7.18
2023-02-13T02:05:30.834Z,8.02
2023-02-13T02:09:27.610Z,7.07
2023-02-13T02:13:20.729Z,7.53
2023-02-13T02:17:02.748Z,8.25
2023-02-13T02:21:09.094Z,7.07
2023-02-13T02:25:17.613Z,8.57
2023-02-13T02:29:25.119Z,7.88
2023-02-13T02:37:22.419Z,6.28
2023-02-13T02:41:45.222Z,7.75
2023-02-13T02:45:56.788Z,6.65
2023-02-13T02:50:00.027Z,7.68
2023-02-13T02:53:58.435Z,8.05
2023-02-13T02:58:08.477Z,8.50
2023-02-13T03:02:10.182Z,7.18
2023-02-13T03:06:13.672Z,6.95
2023-02-13T03:10:24.676Z,8.13
2023-02-13T03:14:10.439Z,6.78
2023-02-13T03:18:11.142Z,8.27
2023-02-13T03:22:11.752Z,7.50
2023-02-13T03:26:15.429Z,7.38
2023-02-13T03:30:11.878Z,7.32
2023-02-13T03:34:03.071Z,8.85
2023-02-13T03:37:56.973Z,8.93
2023-02-13T03:42:00.894Z,9.07
2023-02-13T03:45:54.585Z,10.00
2023-02-13T03:50:00.516Z,8.07
2023-02-13T03:53:43.772Z,7.75
2023-02-13T03:57:47.416Z,8.45
2023-02-13T04:01:32.249Z,10.38
2023-02-13T04:05:21.058Z,9.85
2023-02-13T04:09:03.216Z,9.95
2023-02-13T04:13:03.040Z,7.57
2023-02-13T04:16:50.104Z,8.35
2023-02-13T04:20:32.941Z,7.32
2023-02-13T04:24:14.946Z,9.43
2023-02-13T04:27:56.938Z,8.98
2023-02-13T04:31:40.528Z,8.63
2023-02-13T04:35:22.965Z,7.80
2023-02-13T04:39:05.052Z,7.47
2023-02-13T04:42:49.944Z,7.43
2023-02-13T04:46:31.979Z,9.25
2023-02-13T04:50:13.947Z,9.48
2023-02-13T04:53:55.903Z,9.95
2023-02-13T04:57:37.893Z,7.10
2023-02-13T05:01:20.023Z,9.65
2023-02-13T05:05:02.046Z,7.38
2023-02-13T05:08:44.048Z,9.40
2023-02-13T05:12:26.001Z,9.77
2023-02-13T05:16:08.192Z,7.30
2023-02-13T05:19:50.215Z,9.57
2023-02-13T05:23:32.268Z,10.45
2023-02-13T05:27:14.230Z,9.70
2023-02-13T05:30:56.779Z,8.52
2023-02-13T05:34:39.085Z,7.60
2023-02-13T05:38:21.133Z,11.25
2023-02-13T05:42:04.931Z,10.65
2023-02-13T05:45:47.105Z,8.82
2023-02-13T05:49:29.040Z,8.52
2023-02-13T05:53:11.028Z,9.27
2023-02-13T05:56:53.012Z,9.82
2023-02-13T06:00:35.074Z,9.45
2023-02-13T06:04:17.159Z,10.45
2023-02-13T06:07:59.180Z,8.82
2023-02-13T06:11:41.143Z,7.95
2023-02-13T06:15:23.242Z,10.70
2023-02-13T06:19:05.220Z,9.80
2023-02-13T06:22:51.040Z,10.45
2023-02-13T06:26:33.367Z,9.60
2023-02-13T06:30:16.139Z,9.52
2023-02-13T06:33:58.114Z,9.52
2023-02-13T06:37:40.233Z,9.65
2023-02-13T06:41:22.438Z,9.38
2023-02-13T06:45:05.124Z,10.32
2023-02-13T06:48:47.090Z,10.60
2023-02-13T06:52:30.524Z,10.77
2023-02-13T06:56:12.522Z,9.18
2023-02-13T06:59:54.527Z,9.63
2023-02-13T07:03:36.574Z,11.82
2023-02-13T07:07:18.592Z,11.77
2023-02-13T07:11:00.533Z,10.65
2023-02-13T07:14:42.527Z,10.18
2023-02-13T07:18:24.452Z,9.65
2023-02-13T07:22:06.478Z,9.50
2023-02-13T07:25:48.464Z,10.55
2023-02-13T07:29:30.551Z,11.68
2023-02-13T07:33:13.651Z,15.35
2023-02-13T07:36:55.765Z,10.52
2023-02-13T07:40:37.692Z,12.05
2023-02-13T07:44:19.676Z,9.95
2023-02-13T07:48:01.638Z,11.40
2023-02-13T07:51:43.639Z,10.00
2023-02-13T07:55:26.985Z,12.60
2023-02-13T07:59:09.028Z,9.68
2023-02-13T08:02:51.002Z,12.82
2023-02-13T08:06:33.016Z,10.93
2023-02-13T08:10:34.619Z,11.70
2023-02-13T08:14:16.683Z,11.60
2023-02-13T08:17:58.769Z,9.70
2023-02-13T08:21:40.906Z,12.25
2023-02-13T08:25:22.832Z,11.88
2023-02-13T08:29:06.376Z,12.45
2023-02-13T08:32:54.299Z,11.48
2023-02-13T08:36:37.218Z,12.00
2023-02-13T08:40:19.358Z,12.40
2023-02-13T08:44:01.772Z,12.10
2023-02-13T08:47:43.725Z,11.68
2023-02-13T08:51:25.731Z,11.70
2023-02-13T08:55:07.939Z,13.63
2023-02-13T08:58:50.495Z,11.68
2023-02-13T09:02:32.519Z,15.93
2023-02-13T09:06:14.497Z,12.27
2023-02-13T09:09:56.477Z,11.57
2023-02-13T09:13:38.519Z,11.60
2023-02-13T09:17:20.604Z,11.90
2023-02-13T09:21:11.056Z,11.30
2023-02-13T09:24:53.077Z,12.32
2023-02-13T09:28:36.498Z,13.43
2023-02-13T09:32:18.550Z,12.85
2023-02-13T09:36:05.715Z,11.93
2023-02-13T09:39:47.816Z,12.50
2023-02-13T09:43:43.112Z,13.35
2023-02-13T09:47:41.591Z,12.05
2023-02-13T09:51:26.318Z,11.40
2023-02-13T09:55:19.922Z,11.90
2023-02-13T09:59:24.684Z,11.20
2023-02-13T10:03:40.431Z,15.02
2023-02-13T10:07:49.411Z,12.27
2023-02-13T10:11:59.417Z,12.02
2023-02-13T10:15:49.056Z,12.98
2023-02-13T10:20:06.515Z,11.95
2023-02-13T10:23:51.372Z,10.70
2023-02-13T10:27:39.135Z,11.00
2023-02-13T10:31:23.791Z,11.57
2023-02-13T10:35:19.860Z,9.25
2023-02-13T10:39:01.848Z,11.60
2023-02-13T10:42:56.967Z,11.00
2023-02-13T10:46:49.996Z,11.98
2023-02-13T10:50:53.459Z,9.98
2023-02-13T10:55:16.754Z,10.32
2023-02-13T10:59:06.729Z,10.10
2023-02-13T11:02:48.893Z,9.23
2023-02-13T11:06:31.008Z,11.18
2023-02-13T11:10:20.145Z,10.95
2023-02-13T11:14:25.722Z,9.48
2023-02-13T11:18:19.658Z,10.55
2023-02-13T11:22:26.981Z,10.25
2023-02-13T11:30:27.947Z,9.65
2023-02-13T11:34:22.232Z,9.55
2023-02-13T11:38:16.525Z,8.90
2023-02-13T11:41:59.621Z,9.88
2023-02-13T11:45:41.662Z,8.63
2023-02-13T11:49:29.256Z,8.82
2023-02-13T11:53:25.754Z,7.80
2023-02-13T11:57:19.493Z,10.13
2023-02-13T12:01:30.888Z,9.10
2023-02-13T12:05:19.609Z,9.35
2023-02-13T12:09:01.676Z,9.65
2023-02-13T12:12:47.327Z,8.27
2023-02-13T12:16:36.038Z,7.90
2023-02-13T12:20:18.690Z,8.45
2023-02-13T12:24:12.647Z,8.63
2023-02-13T12:28:12.649Z,7.95
2023-02-13T12:31:54.677Z,8.38
2023-02-13T12:35:39.437Z,7.82
2023-02-13T12:39:34.797Z,8.30
2023-02-13T12:43:35.370Z,8.70
2023-02-13T12:47:26.666Z,8.52
2023-02-13T12:51:37.448Z,7.97
2023-02-13T12:55:56.094Z,8.35
2023-02-13T12:59:57.502Z,8.18
2023-02-13T13:03:46.254Z,8.43
2023-02-13T13:08:07.279Z,8.50
2023-02-13T13:11:55.801Z,9.30
2023-02-13T13:15:50.149Z,8.70
2023-02-13T13:19:32.086Z,7.75
2023-02-13T13:23:29.833Z,8.35
2023-02-13T13:27:46.932Z,7.97
2023-02-13T13:31:29.407Z,8.23
2023-02-13T13:35:16.281Z,9.38
2023-02-13T13:39:23.068Z,8.52
2023-02-13T13:43:46.136Z,9.20
2023-02-13T13:47:40.043Z,8.38
2023-02-13T13:51:22.528Z,9.63
2023-02-13T13:55:05.682Z,8.85
2023-02-13T13:58:49.717Z,7.85
2023-02-13T14:02:46.075Z,8.35
2023-02-13T14:07:06.085Z,8.55
2023-02-13T14:10:54.227Z,7.68
2023-02-13T14:14:36.592Z,7.68
2023-02-13T14:18:20.634Z,7.75
2023-02-13T14:22:20.876Z,7.55
2023-02-13T14:26:18.012Z,7.68
2023-02-13T14:30:01.346Z,7.93
2023-02-13T14:33:43.540Z,8.93
2023-02-13T14:37:32.359Z,7.18
2023-02-13T14:41:51.477Z,7.97
2023-02-13T14:45:41.313Z,11.10
2023-02-13T14:49:26.865Z,9.30
2023-02-13T14:53:21.260Z,9.95
2023-02-13T14:57:22.247Z,9.68
2023-02-13T15:01:18.838Z,8.00
2023-02-13T15:05:06.338Z,10.15
2023-02-13T15:08:53.016Z,9.20
2023-02-13T15:16:19.620Z,8.90
2023-02-13T15:20:25.037Z,8.73
2023-02-13T15:24:14.745Z,9.60
2023-02-13T15:27:58.762Z,9.85
2023-02-13T15:31:40.828Z,9.63
2023-02-13T15:35:25.451Z,9.65
2023-02-13T15:39:09.784Z,12.93
2023-02-13T15:42:53.069Z,9.88
2023-02-13T15:46:38.870Z,10.27
2023-02-13T15:50:32.508Z,12.90
2023-02-13T15:54:29.441Z,10.18
2023-02-13T15:58:14.006Z,10.35
2023-02-13T16:01:56.364Z,10.60
2023-02-13T16:05:41.604Z,9.80
2023-02-13T16:09:32.361Z,8.77
2023-02-13T16:13:19.243Z,11.45
2023-02-13T16:17:03.375Z,9.23
2023-02-13T16:20:45.379Z,8.95
2023-02-13T16:24:27.904Z,10.43
2023-02-13T16:28:09.855Z,10.60
2023-02-13T16:31:53.516Z,9.35
2023-02-13T16:35:38.533Z,12.55
2023-02-13T16:39:32.176Z,8.65
2023-02-13T16:43:40.360Z,11.13
2023-02-13T16:47:25.405Z,8.68
2023-02-13T16:51:08.093Z,15.07
2023-02-13T16:54:57.143Z,9.73
2023-02-13T16:58:39.513Z,10.75
2023-02-13T17:02:32.103Z,9.52
2023-02-13T17:06:15.567Z,11.05
2023-02-13T17:10:06.786Z,9.98
2023-02-13T17:13:48.846Z,11.82
2023-02-13T17:17:32.605Z,11.70
2023-02-13T17:21:14.625Z,12.35
2023-02-13T17:24:57.890Z,10.35
2023-02-13T17:28:40.072Z,11.35
2023-02-13T17:32:25.008Z,12.55
2023-02-13T17:36:07.982Z,13.65
2023-02-13T17:39:50.546Z,13.18
2023-02-13T17:43:32.541Z,14.75
2023-02-13T17:47:14.685Z,13.10
2023-02-13T17:50:57.203Z,14.13
2023-02-13T17:54:39.339Z,12.75
2023-02-13T17:58:21.380Z,13.65
2023-02-13T18:02:03.487Z,15.68
2023-02-13T18:05:48.653Z,14.98
2023-02-13T18:09:30.644Z,13.20
2023-02-13T18:13:12.700Z,14.32
2023-02-13T18:16:54.691Z,12.75
2023-02-13T18:20:36.881Z,16.38
2023-02-13T18:24:19.246Z,15.60
2023-02-13T18:28:01.840Z,15.38
2023-02-13T18:31:43.986Z,19.23
2023-02-13T18:35:26.814Z,17.58
2023-02-13T18:39:08.811Z,15.68
2023-02-13T18:42:52.251Z,17.65
2023-02-13T18:46:34.286Z,15.85
2023-02-13T18:50:16.415Z,18.17
2023-02-13T18:53:58.367Z,19.50
2023-02-13T18:57:43.587Z,19.80
2023-02-13T19:01:25.732Z,19.33
2023-02-13T19:05:07.905Z,18.85
2023-02-13T19:08:50.482Z,21.00
2023-02-13T19:12:32.557Z,21.05
2023-02-13T19:16:19.300Z,21.98
2023-02-13T19:20:01.493Z,19.83
2023-02-13T19:23:43.470Z,19.80
2023-02-13T19:27:25.440Z,24.00
2023-02-13T19:31:15.217Z,21.08
2023-02-13T19:34:57.494Z,21.48
2023-02-13T19:38:41.285Z,21.80
2023-02-13T19:42:23.287Z,21.70
2023-02-13T19:46:13.194Z,22.15
2023-02-13T19:49:55.282Z,23.48
2023-02-13T19:53:37.335Z,23.17
2023-02-13T19:57:20.180Z,24.15
2023-02-13T20:01:10.547Z,23.67
2023-02-13T20:04:52.528Z,24.02
2023-02-13T20:08:34.959Z,23.33
2023-02-13T20:12:16.981Z,24.67
2023-02-13T20:15:59.288Z,23.83
2023-02-13T20:19:41.376Z,24.20
2023-02-13T20:23:23.420Z,25.13
2023-02-13T20:27:05.474Z,22.98
2023-02-13T20:30:47.596Z,23.60
2023-02-13T20:34:31.717Z,25.35
2023-02-13T20:38:19.674Z,25.33
2023-02-13T20:42:01.638Z,24.67
2023-02-13T20:45:43.652Z,26.23
2023-02-13T20:49:26.786Z,24.15
2023-02-13T20:53:10.137Z,24.55
2023-02-13T20:56:52.293Z,28.00
2023-02-13T21:00:34.300Z,25.17
2023-02-13T21:04:19.370Z,25.92
2023-02-13T21:08:01.368Z,23.25
2023-02-13T21:11:44.605Z,25.45
2023-02-13T21:15:28.910Z,25.05
2023-02-13T21:19:17.626Z,26.20
2023-02-13T21:22:59.762Z,27.80
2023-02-13T21:26:42.650Z,24.63
2023-02-13T21:30:24.725Z,29.38
2023-02-13T21:34:10.585Z,27.15
2023-02-13T21:37:52.754Z,26.88
2023-02-13T21:41:35.402Z,26.40
2023-02-13T21:45:17.416Z,24.98
2023-02-13T21:49:01.849Z,24.80
2023-02-13T21:52:43.789Z,27.20
2023-02-13T21:56:28.445Z,25.80
2023-02-13T22:00:11.071Z,26.30
2023-02-13T22:03:53.799Z,26.23
2023-02-13T22:07:55.706Z,26.70
2023-02-13T22:11:38.322Z,26.33
2023-02-13T22:15:20.765Z,26.70
2023-02-13T22:19:03.579Z,29.38
2023-02-13T22:22:45.582Z,28.85
2023-02-13T22:26:30.349Z,29.02
2023-02-13T22:30:12.798Z,26.70
2023-02-13T22:34:03.534Z,26.80
2023-02-13T22:37:46.546Z,28.02
2023-02-13T22:41:28.621Z,28.75
2023-02-13T22:45:10.645Z,29.08
2023-02-13T22:48:53.542Z,31.08
2023-02-13T22:52:35.547Z,31.17
2023-02-13T22:56:17.523Z,28.85
2023-02-13T22:59:59.478Z,29.23
2023-02-13T23:03:41.743Z,27.65
2023-02-13T23:07:23.673Z,30.38
2023-02-13T23:11:33.391Z,29.65
2023-02-13T23:15:15.778Z,30.27
2023-02-13T23:18:58.587Z,30.23
2023-02-13T23:22:40.538Z,25.38
2023-02-13T23:26:22.514Z,31.13
2023-02-13T23:30:06.592Z,32.35
2023-02-13T23:33:48.614Z,30.80
2023-02-13T23:37:30.596Z,31.05
2023-02-13T23:41:12.906Z,28.20
2023-02-13T23:44:54.969Z,30.27
2023-02-13T23:48:36.934Z,28.70
2023-02-13T23:52:18.895Z,31.65
2023-02-13T23:56:00.921Z,35.13
2023-02-13T23:59:42.917Z,35.15
